sensor_id;sensor_type;location;lat;lon;timestamp;pressure;altitude;pressure_sealevel;temperature;humidity
26112;BME280;13829;48.990;8.346;2023-08-06T00:01:55;99610.38;;;17.19;100.00
26112;BME280;13829;48.990;8.346;2023-08-06T00:04:22;99603.59;;;17.10;100.00
26112;BME280;13829;48.990;8.346;2023-08-06T00:06:49;99606.25;;;17.10;100.00
26112;BME280;13829;48.990;8.346;2023-08-06T00:09:16;99610.59;;;17.38;100.00
26112;BME280;13829;48.990;8.346;2023-08-06T00:11:44;99605.50;;;17.32;100.00
26112;BME280;13829;48.990;8.346;2023-08-06T00:14:12;99600.16;;;17.32;100.00
26112;BME280;13829;48.990;8.346;2023-08-06T00:16:43;99604.09;;;17.22;100.00
26112;BME280;13829;48.990;8.346;2023-08-06T00:19:09;99594.38;;;17.21;100.00
26112;BME280;13829;48.990;8.346;2023-08-06T00:21:37;99592.84;;;17.14;100.00
26112;BME280;13829;48.990;8.346;2023-08-06T00:24:04;99588.13;;;16.97;100.00
26112;BME280;13829;48.990;8.346;2023-08-06T00:26:31;99580.22;;;16.95;100.00
26112;BME280;13829;48.990;8.346;2023-08-06T00:28:59;99580.72;;;17.06;100.00
26112;BME280;13829;48.990;8.346;2023-08-06T00:31:26;99572.63;;;16.83;100.00
26112;BME280;13829;48.990;8.346;2023-08-06T00:33:53;99583.47;;;16.76;100.00
26112;BME280;13829;48.990;8.346;2023-08-06T00:36:20;99583.88;;;16.64;100.00
26112;BME280;13829;48.990;8.346;2023-08-06T00:38:47;99572.44;;;16.62;100.00
26112;BME280;13829;48.990;8.346;2023-08-06T00:41:14;99576.81;;;16.90;100.00
26112;BME280;13829;48.990;8.346;2023-08-06T00:43:41;99578.00;;;16.81;100.00
26112;BME280;13829;48.990;8.346;2023-08-06T00:46:10;99573.94;;;16.71;100.00
26112;BME280;13829;48.990;8.346;2023-08-06T00:48:37;99566.91;;;16.68;100.00
26112;BME280;13829;48.990;8.346;2023-08-06T00:51:04;99565.09;;;16.70;100.00
26112;BME280;13829;48.990;8.346;2023-08-06T00:53:31;99562.44;;;16.70;100.00
26112;BME280;13829;48.990;8.346;2023-08-06T00:55:59;99565.22;;;16.66;100.00
26112;BME280;13829;48.990;8.346;2023-08-06T00:58:26;99555.69;;;16.60;100.00
26112;BME280;13829;48.990;8.346;2023-08-06T01:00:53;99567.34;;;16.56;100.00
26112;BME280;13829;48.990;8.346;2023-08-06T01:03:21;99558.34;;;16.60;100.00
26112;BME280;13829;48.990;8.346;2023-08-06T01:05:49;99560.28;;;16.55;100.00
26112;BME280;13829;48.990;8.346;2023-08-06T01:08:30;99550.59;;;16.54;100.00
26112;BME280;13829;48.990;8.346;2023-08-06T01:11:17;99544.38;;;16.55;100.00
26112;BME280;13829;48.990;8.346;2023-08-06T01:13:53;99551.41;;;16.56;100.00
26112;BME280;13829;48.990;8.346;2023-08-06T01:16:21;99537.22;;;16.57;100.00
26112;BME280;13829;48.990;8.346;2023-08-06T01:18:52;99528.75;;;16.72;100.00
26112;BME280;13829;48.990;8.346;2023-08-06T01:21:20;99525.53;;;16.88;100.00
26112;BME280;13829;48.990;8.346;2023-08-06T01:23:48;99516.06;;;16.80;100.00
26112;BME280;13829;48.990;8.346;2023-08-06T01:26:21;99519.47;;;16.84;100.00
26112;BME280;13829;48.990;8.346;2023-08-06T01:29:00;99507.69;;;16.93;100.00
26112;BME280;13829;48.990;8.346;2023-08-06T01:31:36;99515.16;;;17.07;100.00
26112;BME280;13829;48.990;8.346;2023-08-06T01:34:17;99512.34;;;17.11;100.00
26112;BME280;13829;48.990;8.346;2023-08-06T01:36:50;99512.13;;;17.18;100.00
26112;BME280;13829;48.990;8.346;2023-08-06T01:39:17;99519.28;;;17.16;100.00
26112;BME280;13829;48.990;8.346;2023-08-06T01:41:46;99512.44;;;17.08;100.00
26112;BME280;13829;48.990;8.346;2023-08-06T01:44:14;99516.63;;;17.16;100.00
26112;BME280;13829;48.990;8.346;2023-08-06T01:46:41;99520.34;;;17.10;100.00
26112;BME280;13829;48.990;8.346;2023-08-06T01:49:07;99521.09;;;17.14;100.00
26112;BME280;13829;48.990;8.346;2023-08-06T01:51:34;99518.94;;;17.25;100.00
26112;BME280;13829;48.990;8.346;2023-08-06T01:54:03;99508.59;;;17.17;100.00
26112;BME280;13829;48.990;8.346;2023-08-06T01:56:30;99505.53;;;17.28;100.00
26112;BME280;13829;48.990;8.346;2023-08-06T01:58:57;99502.13;;;17.24;100.00
26112;BME280;13829;48.990;8.346;2023-08-06T02:01:23;99506.16;;;17.11;100.00
26112;BME280;13829;48.990;8.346;2023-08-06T02:03:50;99510.94;;;17.01;100.00
26112;BME280;13829;48.990;8.346;2023-08-06T02:06:17;99510.38;;;17.17;100.00
26112;BME280;13829;48.990;8.346;2023-08-06T02:08:44;99509.63;;;17.13;100.00
26112;BME280;13829;48.990;8.346;2023-08-06T02:11:12;99503.22;;;17.19;100.00
26112;BME280;13829;48.990;8.346;2023-08-06T02:13:39;99504.53;;;17.07;100.00
26112;BME280;13829;48.990;8.346;2023-08-06T02:16:07;99502.69;;;17.09;100.00
26112;BME280;13829;48.990;8.346;2023-08-06T02:18:35;99504.00;;;16.97;100.00
26112;BME280;13829;48.990;8.346;2023-08-06T02:21:01;99508.28;;;17.01;100.00
26112;BME280;13829;48.990;8.346;2023-08-06T02:23:28;99519.84;;;17.00;100.00
26112;BME280;13829;48.990;8.346;2023-08-06T02:25:59;99507.69;;;16.93;100.00
26112;BME280;13829;48.990;8.346;2023-08-06T02:28:28;99513.69;;;16.98;100.00
26112;BME280;13829;48.990;8.346;2023-08-06T02:30:55;99507.25;;;17.05;100.00
26112;BME280;13829;48.990;8.346;2023-08-06T02:33:22;99504.94;;;17.20;100.00
26112;BME280;13829;48.990;8.346;2023-08-06T02:35:49;99517.53;;;17.15;100.00
26112;BME280;13829;48.990;8.346;2023-08-06T02:38:16;99517.47;;;17.16;100.00
26112;BME280;13829;48.990;8.346;2023-08-06T02:40:44;99518.72;;;17.06;100.00
26112;BME280;13829;48.990;8.346;2023-08-06T02:43:11;99516.47;;;16.95;100.00
26112;BME280;13829;48.990;8.346;2023-08-06T02:45:39;99519.31;;;16.89;100.00
26112;BME280;13829;48.990;8.346;2023-08-06T02:48:06;99523.81;;;16.87;100.00
26112;BME280;13829;48.990;8.346;2023-08-06T02:50:38;99520.22;;;16.88;100.00
26112;BME280;13829;48.990;8.346;2023-08-06T02:53:06;99517.22;;;16.73;100.00
26112;BME280;13829;48.990;8.346;2023-08-06T02:55:33;99525.97;;;16.75;100.00
26112;BME280;13829;48.990;8.346;2023-08-06T02:58:00;99518.13;;;16.72;100.00
26112;BME280;13829;48.990;8.346;2023-08-06T03:00:27;99523.25;;;16.77;100.00
26112;BME280;13829;48.990;8.346;2023-08-06T03:02:55;99514.13;;;16.59;100.00
26112;BME280;13829;48.990;8.346;2023-08-06T03:05:22;99512.31;;;16.61;100.00
26112;BME280;13829;48.990;8.346;2023-08-06T03:07:49;99507.72;;;16.66;100.00
26112;BME280;13829;48.990;8.346;2023-08-06T03:10:16;99521.06;;;16.63;100.00
26112;BME280;13829;48.990;8.346;2023-08-06T03:12:43;99508.94;;;16.56;100.00
26112;BME280;13829;48.990;8.346;2023-08-06T03:15:10;99514.13;;;16.59;100.00
26112;BME280;13829;48.990;8.346;2023-08-06T03:17:37;99510.97;;;16.47;100.00
26112;BME280;13829;48.990;8.346;2023-08-06T03:20:07;99511.19;;;16.41;100.00
26112;BME280;13829;48.990;8.346;2023-08-06T03:22:34;99511.31;;;16.38;100.00
26112;BME280;13829;48.990;8.346;2023-08-06T03:25:01;99512.56;;;16.26;100.00
26112;BME280;13829;48.990;8.346;2023-08-06T03:27:28;99516.91;;;16.29;100.00
26112;BME280;13829;48.990;8.346;2023-08-06T03:29:55;99518.75;;;16.27;100.00
26112;BME280;13829;48.990;8.346;2023-08-06T03:32:22;99515.94;;;16.32;100.00
26112;BME280;13829;48.990;8.346;2023-08-06T03:34:49;99512.28;;;16.36;100.00
26112;BME280;13829;48.990;8.346;2023-08-06T03:37:17;99514.59;;;16.45;100.00
26112;BME280;13829;48.990;8.346;2023-08-06T03:39:44;99513.03;;;16.39;100.00
26112;BME280;13829;48.990;8.346;2023-08-06T03:42:11;99509.88;;;16.28;100.00
26112;BME280;13829;48.990;8.346;2023-08-06T03:44:38;99508.66;;;16.38;100.00
26112;BME280;13829;48.990;8.346;2023-08-06T03:47:05;99510.31;;;16.41;100.00
26112;BME280;13829;48.990;8.346;2023-08-06T03:49:32;99509.69;;;16.34;100.00
26112;BME280;13829;48.990;8.346;2023-08-06T03:51:59;99509.75;;;16.31;100.00
26112;BME280;13829;48.990;8.346;2023-08-06T03:54:27;99505.41;;;16.28;100.00
26112;BME280;13829;48.990;8.346;2023-08-06T03:56:55;99508.91;;;16.30;100.00
26112;BME280;13829;48.990;8.346;2023-08-06T03:59:22;99506.19;;;16.32;100.00
26112;BME280;13829;48.990;8.346;2023-08-06T04:01:49;99508.84;;;16.32;100.00
26112;BME280;13829;48.990;8.346;2023-08-06T04:04:16;99495.59;;;16.32;100.00
26112;BME280;13829;48.990;8.346;2023-08-06T04:06:43;99511.69;;;16.26;100.00
26112;BME280;13829;48.990;8.346;2023-08-06T04:09:10;99501.09;;;16.26;100.00
26112;BME280;13829;48.990;8.346;2023-08-06T04:11:38;99510.88;;;16.24;100.00
26112;BME280;13829;48.990;8.346;2023-08-06T04:14:05;99511.75;;;16.24;100.00
26112;BME280;13829;48.990;8.346;2023-08-06T04:16:32;99510.88;;;16.24;100.00
26112;BME280;13829;48.990;8.346;2023-08-06T04:18:59;99511.91;;;16.20;100.00
26112;BME280;13829;48.990;8.346;2023-08-06T04:21:25;99513.53;;;16.24;100.00
26112;BME280;13829;48.990;8.346;2023-08-06T04:23:52;99509.75;;;16.31;100.00
26112;BME280;13829;48.990;8.346;2023-08-06T04:26:19;99507.25;;;16.26;100.00
26112;BME280;13829;48.990;8.346;2023-08-06T04:28:48;99509.09;;;16.24;100.00
26112;BME280;13829;48.990;8.346;2023-08-06T04:31:15;99511.81;;;16.23;100.00
26112;BME280;13829;48.990;8.346;2023-08-06T04:33:42;99501.91;;;16.28;100.00
26112;BME280;13829;48.990;8.346;2023-08-06T04:36:09;99498.69;;;16.18;100.00
26112;BME280;13829;48.990;8.346;2023-08-06T04:38:36;99508.00;;;16.32;100.00
26112;BME280;13829;48.990;8.346;2023-08-06T04:41:04;99499.22;;;16.29;100.00
26112;BME280;13829;48.990;8.346;2023-08-06T04:43:31;99506.06;;;16.35;100.00
26112;BME280;13829;48.990;8.346;2023-08-06T04:45:59;99500.75;;;16.37;100.00
26112;BME280;13829;48.990;8.346;2023-08-06T04:48:26;99501.75;;;16.33;100.00
26112;BME280;13829;48.990;8.346;2023-08-06T04:50:53;99502.16;;;16.20;100.00
26112;BME280;13829;48.990;8.346;2023-08-06T04:53:20;99502.50;;;16.36;100.00
26112;BME280;13829;48.990;8.346;2023-08-06T04:55:47;99504.56;;;16.28;100.00
26112;BME280;13829;48.990;8.346;2023-08-06T04:58:14;99504.38;;;16.34;100.00
26112;BME280;13829;48.990;8.346;2023-08-06T05:00:42;99503.19;;;16.43;100.00
26112;BME280;13829;48.990;8.346;2023-08-06T05:03:10;99509.16;;;16.50;100.00
26112;BME280;13829;48.990;8.346;2023-08-06T05:05:39;99507.22;;;16.55;100.00
26112;BME280;13829;48.990;8.346;2023-08-06T05:08:06;99514.13;;;16.59;100.00
26112;BME280;13829;48.990;8.346;2023-08-06T05:10:33;99509.66;;;16.61;100.00
26112;BME280;13829;48.990;8.346;2023-08-06T05:13:00;99513.81;;;16.68;100.00
26112;BME280;13829;48.990;8.346;2023-08-06T05:15:27;99512.03;;;16.69;100.00
26112;BME280;13829;48.990;8.346;2023-08-06T05:17:54;99514.56;;;16.73;100.00
26112;BME280;13829;48.990;8.346;2023-08-06T05:20:22;99515.69;;;16.66;100.00
26112;BME280;13829;48.990;8.346;2023-08-06T05:22:49;99515.56;;;16.69;100.00
26112;BME280;13829;48.990;8.346;2023-08-06T05:25:17;99521.75;;;16.70;100.00
26112;BME280;13829;48.990;8.346;2023-08-06T05:27:43;99511.34;;;16.63;100.00
26112;BME280;13829;48.990;8.346;2023-08-06T05:30:11;99510.44;;;16.63;100.00
26112;BME280;13829;48.990;8.346;2023-08-06T05:32:38;99522.81;;;16.64;100.00
26112;BME280;13829;48.990;8.346;2023-08-06T05:35:06;99527.47;;;16.57;100.00
26112;BME280;13829;48.990;8.346;2023-08-06T05:37:34;99530.78;;;16.64;100.00
26112;BME280;13829;48.990;8.346;2023-08-06T05:40:01;99529.91;;;16.63;100.00
26112;BME280;13829;48.990;8.346;2023-08-06T05:42:29;99523.00;;;16.58;100.00
26112;BME280;13829;48.990;8.346;2023-08-06T05:44:56;99531.19;;;16.52;100.00
26112;BME280;13829;48.990;8.346;2023-08-06T05:47:23;99529.41;;;16.52;100.00
26112;BME280;13829;48.990;8.346;2023-08-06T05:49:50;99540.28;;;16.44;100.00
26112;BME280;13829;48.990;8.346;2023-08-06T05:52:17;99541.16;;;16.45;100.00
26112;BME280;13829;48.990;8.346;2023-08-06T05:54:45;99541.09;;;16.46;100.00
26112;BME280;13829;48.990;8.346;2023-08-06T05:57:12;99531.09;;;16.55;100.00
26112;BME280;13829;48.990;8.346;2023-08-06T05:59:40;99539.25;;;16.49;100.00
26112;BME280;13829;48.990;8.346;2023-08-06T06:02:07;99533.84;;;16.52;100.00
26112;BME280;13829;48.990;8.346;2023-08-06T06:04:34;99537.22;;;16.57;100.00
26112;BME280;13829;48.990;8.346;2023-08-06T06:07:01;99533.63;;;16.58;100.00
26112;BME280;13829;48.990;8.346;2023-08-06T06:09:28;99537.75;;;16.67;100.00
26112;BME280;13829;48.990;8.346;2023-08-06T06:11:56;99528.88;;;16.68;100.00
26112;BME280;13829;48.990;8.346;2023-08-06T06:14:23;99531.41;;;16.72;100.00
26112;BME280;13829;48.990;8.346;2023-08-06T06:16:50;99538.84;;;16.61;100.00
26112;BME280;13829;48.990;8.346;2023-08-06T06:19:18;99535.28;;;16.62;100.00
26112;BME280;13829;48.990;8.346;2023-08-06T06:21:45;99543.13;;;16.65;100.00
26112;BME280;13829;48.990;8.346;2023-08-06T06:24:12;99550.19;;;16.66;100.00
26112;BME280;13829;48.990;8.346;2023-08-06T06:26:39;99548.38;;;16.67;100.00
26112;BME280;13829;48.990;8.346;2023-08-06T06:29:07;99553.88;;;16.62;100.00
26112;BME280;13829;48.990;8.346;2023-08-06T06:31:34;99557.22;;;16.67;100.00
26112;BME280;13829;48.990;8.346;2023-08-06T06:34:01;99556.59;;;16.59;100.00
26112;BME280;13829;48.990;8.346;2023-08-06T06:36:28;99552.06;;;16.62;100.00
26112;BME280;13829;48.990;8.346;2023-08-06T06:38:55;99560.28;;;16.55;100.00
26112;BME280;13829;48.990;8.346;2023-08-06T06:41:22;99564.06;;;16.47;100.00
26112;BME280;13829;48.990;8.346;2023-08-06T06:43:49;99560.09;;;16.34;100.00
26112;BME280;13829;48.990;8.346;2023-08-06T06:46:17;99568.78;;;16.38;100.00
26112;BME280;13829;48.990;8.346;2023-08-06T06:48:44;99562.31;;;16.46;100.00
26112;BME280;13829;48.990;8.346;2023-08-06T06:51:12;99562.44;;;16.43;100.00
26112;BME280;13829;48.990;8.346;2023-08-06T06:53:39;99561.78;;;16.37;100.00
26112;BME280;13829;48.990;8.346;2023-08-06T06:56:06;99568.69;;;16.12;100.00
26112;BME280;13829;48.990;8.346;2023-08-06T06:58:33;99566.50;;;16.27;100.00
26112;BME280;13829;48.990;8.346;2023-08-06T07:01:00;99559.97;;;16.37;100.00
26112;BME280;13829;48.990;8.346;2023-08-06T07:03:28;99563.28;;;16.44;100.00
26112;BME280;13829;48.990;8.346;2023-08-06T07:05:58;99565.09;;;16.43;100.00
26112;BME280;13829;48.990;8.346;2023-08-06T07:08:25;99561.72;;;16.38;100.00
26112;BME280;13829;48.990;8.346;2023-08-06T07:11:01;99571.38;;;16.41;100.00
26112;BME280;13829;48.990;8.346;2023-08-06T07:13:28;99563.16;;;16.49;100.00
26112;BME280;13829;48.990;8.346;2023-08-06T07:15:55;99559.59;;;16.50;100.00
26112;BME280;13829;48.990;8.346;2023-08-06T07:18:23;99557.69;;;16.53;100.00
26112;BME280;13829;48.990;8.346;2023-08-06T07:20:53;99561.91;;;16.59;100.00
26112;BME280;13829;48.990;8.346;2023-08-06T07:23:22;99565.00;;;16.73;100.00
26112;BME280;13829;48.990;8.346;2023-08-06T07:25:49;99566.00;;;16.96;100.00
26112;BME280;13829;48.990;8.346;2023-08-06T07:28:17;99571.72;;;17.10;100.00
26112;BME280;13829;48.990;8.346;2023-08-06T07:30:45;99568.84;;;17.17;100.00
26112;BME280;13829;48.990;8.346;2023-08-06T07:33:12;99570.34;;;16.99;100.00
26112;BME280;13829;48.990;8.346;2023-08-06T07:35:39;99573.56;;;16.82;100.00
26112;BME280;13829;48.990;8.346;2023-08-06T07:38:07;99568.34;;;16.78;100.00
26112;BME280;13829;48.990;8.346;2023-08-06T07:40:36;99577.31;;;16.74;100.00
26112;BME280;13829;48.990;8.346;2023-08-06T07:43:03;99583.53;;;16.75;100.00
26112;BME280;13829;48.990;8.346;2023-08-06T07:45:33;99577.44;;;16.71;100.00
26112;BME280;13829;48.990;8.346;2023-08-06T07:48:02;99586.25;;;16.72;100.00
26112;BME280;13829;48.990;8.346;2023-08-06T07:50:29;99579.44;;;16.65;100.00
26112;BME280;13829;48.990;8.346;2023-08-06T07:52:56;99575.91;;;16.64;100.00
26112;BME280;13829;48.990;8.346;2023-08-06T07:55:25;99582.63;;;16.74;100.00
26112;BME280;13829;48.990;8.346;2023-08-06T07:57:53;99586.78;;;16.83;100.00
26112;BME280;13829;48.990;8.346;2023-08-06T08:00:20;99581.00;;;16.70;100.00
26112;BME280;13829;48.990;8.346;2023-08-06T08:02:47;99580.16;;;16.70;100.00
26112;BME280;13829;48.990;8.346;2023-08-06T08:05:14;99586.38;;;16.69;100.00
26112;BME280;13829;48.990;8.346;2023-08-06T08:07:41;99587.56;;;16.60;100.00
26112;BME280;13829;48.990;8.346;2023-08-06T08:10:08;99584.75;;;16.65;100.00
26112;BME280;13829;48.990;8.346;2023-08-06T08:12:37;99586.53;;;16.64;100.00
26112;BME280;13829;48.990;8.346;2023-08-06T08:15:05;99590.19;;;16.60;100.00
26112;BME280;13829;48.990;8.346;2023-08-06T08:17:32;99590.53;;;16.51;100.00
26112;BME280;13829;48.990;8.346;2023-08-06T08:20:00;99581.22;;;16.64;100.00
26112;BME280;13829;48.990;8.346;2023-08-06T08:22:27;99579.69;;;16.84;100.00
26112;BME280;13829;48.990;8.346;2023-08-06T08:24:54;99574.09;;;16.93;100.00
26112;BME280;13829;48.990;8.346;2023-08-06T08:27:21;99578.06;;;17.06;100.00
26112;BME280;13829;48.990;8.346;2023-08-06T08:29:49;99578.06;;;17.06;100.00
26112;BME280;13829;48.990;8.346;2023-08-06T08:32:16;99581.84;;;16.99;100.00
26112;BME280;13829;48.990;8.346;2023-08-06T08:34:43;99575.19;;;16.86;100.00
26112;BME280;13829;48.990;8.346;2023-08-06T08:37:10;99577.44;;;16.98;100.00
26112;BME280;13829;48.990;8.346;2023-08-06T08:39:36;99586.28;;;16.99;100.00
26112;BME280;13829;48.990;8.346;2023-08-06T08:42:04;99575.13;;;17.14;100.00
26112;BME280;13829;48.990;8.346;2023-08-06T08:44:32;99595.50;;;17.14;100.00
26112;BME280;13829;48.990;8.346;2023-08-06T08:47:04;99595.63;;;17.10;100.00
26112;BME280;13829;48.990;8.346;2023-08-06T08:49:31;99602.63;;;17.13;100.00
26112;BME280;13829;48.990;8.346;2023-08-06T08:52:01;99601.78;;;17.11;100.00
26112;BME280;13829;48.990;8.346;2023-08-06T08:54:30;99597.38;;;17.10;100.00
26112;BME280;13829;48.990;8.346;2023-08-06T08:56:58;99609.50;;;17.19;100.00
26112;BME280;13829;48.990;8.346;2023-08-06T08:59:27;99603.97;;;17.25;100.00
26112;BME280;13829;48.990;8.346;2023-08-06T09:01:55;99612.81;;;17.25;100.00
26112;BME280;13829;48.990;8.346;2023-08-06T09:04:26;99605.41;;;17.08;100.00
26112;BME280;13829;48.990;8.346;2023-08-06T09:06:56;99610.47;;;17.16;100.00
26112;BME280;13829;48.990;8.346;2023-08-06T09:09:30;99610.09;;;17.27;100.00
26112;BME280;13829;48.990;8.346;2023-08-06T09:12:02;99606.50;;;17.53;100.00
26112;BME280;13829;48.990;8.346;2023-08-06T09:14:32;99604.47;;;17.60;100.00
26112;BME280;13829;48.990;8.346;2023-08-06T09:16:58;99613.16;;;17.65;100.00
26112;BME280;13829;48.990;8.346;2023-08-06T09:19:27;99610.09;;;17.76;100.00
26112;BME280;13829;48.990;8.346;2023-08-06T09:21:56;99617.09;;;17.79;100.00
26112;BME280;13829;48.990;8.346;2023-08-06T09:24:23;99630.75;;;17.93;100.00
26112;BME280;13829;48.990;8.346;2023-08-06T09:26:51;99621.81;;;17.96;100.00
26112;BME280;13829;48.990;8.346;2023-08-06T09:29:20;99613.69;;;17.75;100.00
26112;BME280;13829;48.990;8.346;2023-08-06T09:31:49;99620.78;;;17.74;100.00
26112;BME280;13829;48.990;8.346;2023-08-06T09:34:20;99628.88;;;17.71;100.00
26112;BME280;13829;48.990;8.346;2023-08-06T09:36:50;99616.78;;;17.63;100.00
26112;BME280;13829;48.990;8.346;2023-08-06T09:39:19;99629.88;;;17.43;100.00
26112;BME280;13829;48.990;8.346;2023-08-06T09:41:47;99632.63;;;17.40;100.00
26112;BME280;13829;48.990;8.346;2023-08-06T09:44:19;99628.69;;;17.27;100.00
26112;BME280;13829;48.990;8.346;2023-08-06T09:46:51;99627.81;;;17.26;100.00
26112;BME280;13829;48.990;8.346;2023-08-06T09:49:21;99635.97;;;17.22;100.00
26112;BME280;13829;48.990;8.346;2023-08-06T09:51:51;99626.91;;;17.27;100.00
26112;BME280;13829;48.990;8.346;2023-08-06T09:54:22;99639.22;;;17.30;100.00
26112;BME280;13829;48.990;8.346;2023-08-06T09:56:50;99642.53;;;17.37;100.00
26112;BME280;13829;48.990;8.346;2023-08-06T09:59:18;99643.34;;;17.39;100.00
26112;BME280;13829;48.990;8.346;2023-08-06T10:01:46;99649.19;;;17.23;100.00
26112;BME280;13829;48.990;8.346;2023-08-06T10:04:14;99648.28;;;17.24;100.00
26112;BME280;13829;48.990;8.346;2023-08-06T10:06:47;99654.72;;;17.17;100.00
26112;BME280;13829;48.990;8.346;2023-08-06T10:09:16;99655.91;;;17.08;100.00
26112;BME280;13829;48.990;8.346;2023-08-06T10:11:50;99663.56;;;16.91;100.00
26112;BME280;13829;48.990;8.346;2023-08-06T10:14:24;99670.22;;;17.04;100.00
26112;BME280;13829;48.990;8.346;2023-08-06T10:16:53;99664.47;;;16.90;100.00
26112;BME280;13829;48.990;8.346;2023-08-06T10:19:21;99668.94;;;16.88;100.00
26112;BME280;13829;48.990;8.346;2023-08-06T10:22:11;99685.09;;;16.82;100.00
26112;BME280;13829;48.990;8.346;2023-08-06T10:24:48;99679.09;;;16.75;100.00
26112;BME280;13829;48.990;8.346;2023-08-06T10:27:21;99689.03;;;16.68;100.00
26112;BME280;13829;48.990;8.346;2023-08-06T10:29:49;99687.25;;;16.69;100.00
26112;BME280;13829;48.990;8.346;2023-08-06T10:32:16;99687.59;;;16.58;100.00
26112;BME280;13829;48.990;8.346;2023-08-06T10:34:56;99699.94;;;16.59;100.00
26112;BME280;13829;48.990;8.346;2023-08-06T10:37:23;99707.88;;;16.60;100.00
26112;BME280;13829;48.990;8.346;2023-08-06T10:39:52;99706.75;;;16.68;100.00
26112;BME280;13829;48.990;8.346;2023-08-06T10:42:27;99710.09;;;16.74;100.00
26112;BME280;13829;48.990;8.346;2023-08-06T10:45:15;99703.13;;;16.70;100.00
26112;BME280;13829;48.990;8.346;2023-08-06T10:47:43;99708.44;;;16.70;100.00
26112;BME280;13829;48.990;8.346;2023-08-06T10:50:13;99726.97;;;16.73;100.00
26112;BME280;13829;48.990;8.346;2023-08-06T10:52:42;99722.22;;;16.55;100.00
26112;BME280;13829;48.990;8.346;2023-08-06T10:55:11;99724.03;;;16.53;100.00
26112;BME280;13829;48.990;8.346;2023-08-06T10:57:38;99726.59;;;16.56;100.00
26112;BME280;13829;48.990;8.346;2023-08-06T11:00:07;99725.88;;;16.51;100.00
26112;BME280;13829;48.990;8.346;2023-08-06T11:02:35;99734.25;;;16.37;100.00
26112;BME280;13829;48.990;8.346;2023-08-06T11:05:07;99738.84;;;16.30;100.00
26112;BME280;13829;48.990;8.346;2023-08-06T11:07:34;99739.97;;;16.23;100.00
26112;BME280;13829;48.990;8.346;2023-08-06T11:10:03;99749.56;;;16.27;100.00
26112;BME280;13829;48.990;8.346;2023-08-06T11:12:33;99751.75;;;16.42;100.00
26112;BME280;13829;48.990;8.346;2023-08-06T11:15:02;99745.25;;;16.53;100.00
26112;BME280;13829;48.990;8.346;2023-08-06T11:17:32;99752.38;;;16.52;100.00
26112;BME280;13829;48.990;8.346;2023-08-06T11:20:00;99760.22;;;16.55;100.00
26112;BME280;13829;48.990;8.346;2023-08-06T11:22:27;99763.78;;;16.56;100.00
26112;BME280;13829;48.990;8.346;2023-08-06T11:24:54;99756.78;;;16.52;100.00
26112;BME280;13829;48.990;8.346;2023-08-06T11:27:21;99750.06;;;16.70;100.00
26112;BME280;13829;48.990;8.346;2023-08-06T11:29:50;99761.47;;;16.73;100.00
26112;BME280;13829;48.990;8.346;2023-08-06T11:32:17;99772.13;;;16.72;100.00
26112;BME280;13829;48.990;8.346;2023-08-06T11:34:44;99769.72;;;16.94;100.00
26112;BME280;13829;48.990;8.346;2023-08-06T11:37:11;99762.53;;;16.96;100.00
26112;BME280;13829;48.990;8.346;2023-08-06T11:39:39;99782.63;;;17.05;100.00
26112;BME280;13829;48.990;8.346;2023-08-06T11:42:11;99782.50;;;17.09;100.00
26112;BME280;13829;48.990;8.346;2023-08-06T11:44:41;99779.53;;;17.19;100.00
26112;BME280;13829;48.990;8.346;2023-08-06T11:47:14;99783.81;;;17.24;100.00
26112;BME280;13829;48.990;8.346;2023-08-06T11:49:44;99786.09;;;17.35;100.00
26112;BME280;13829;48.990;8.346;2023-08-06T11:52:15;99782.06;;;17.23;100.00
26112;BME280;13829;48.990;8.346;2023-08-06T11:54:45;99794.56;;;17.20;100.00
26112;BME280;13829;48.990;8.346;2023-08-06T11:57:13;99788.84;;;17.05;100.00
26112;BME280;13829;48.990;8.346;2023-08-06T11:59:40;99792.03;;;17.17;100.00
26112;BME280;13829;48.990;8.346;2023-08-06T12:02:09;99799.69;;;17.26;100.00
26112;BME280;13829;48.990;8.346;2023-08-06T12:05:02;99805.38;;;17.14;97.62
26112;BME280;13829;48.990;8.346;2023-08-06T12:07:31;99805.44;;;17.12;100.00
26112;BME280;13829;48.990;8.346;2023-08-06T12:09:59;99802.84;;;17.10;100.00
26112;BME280;13829;48.990;8.346;2023-08-06T12:12:26;99805.44;;;17.12;100.00
26112;BME280;13829;48.990;8.346;2023-08-06T12:14:54;99804.59;;;17.11;100.00
26112;BME280;13829;48.990;8.346;2023-08-06T12:17:21;99800.78;;;17.20;100.00
26112;BME280;13829;48.990;8.346;2023-08-06T12:19:48;99803.56;;;17.16;100.00
26112;BME280;13829;48.990;8.346;2023-08-06T12:22:17;99807.28;;;17.38;100.00
26112;BME280;13829;48.990;8.346;2023-08-06T12:24:46;99817.50;;;17.51;100.00
26112;BME280;13829;48.990;8.346;2023-08-06T12:27:13;99812.28;;;17.48;100.00
26112;BME280;13829;48.990;8.346;2023-08-06T12:29:46;99808.38;;;17.58;99.75
26112;BME280;13829;48.990;8.346;2023-08-06T12:32:14;99815.56;;;17.56;99.64
26112;BME280;13829;48.990;8.346;2023-08-06T12:34:42;99822.09;;;17.72;99.08
26112;BME280;13829;48.990;8.346;2023-08-06T12:37:09;99816.78;;;17.72;97.79
26112;BME280;13829;48.990;8.346;2023-08-06T12:39:37;99812.00;;;17.57;97.27
26112;BME280;13829;48.990;8.346;2023-08-06T12:42:06;99812.19;;;17.51;98.04
26112;BME280;13829;48.990;8.346;2023-08-06T12:44:33;99812.19;;;17.51;98.08
26112;BME280;13829;48.990;8.346;2023-08-06T12:47:00;99824.19;;;17.36;98.25
26112;BME280;13829;48.990;8.346;2023-08-06T12:49:27;99821.41;;;17.39;100.00
26112;BME280;13829;48.990;8.346;2023-08-06T12:51:54;99828.88;;;17.27;100.00
26112;BME280;13829;48.990;8.346;2023-08-06T12:54:23;99822.56;;;17.32;100.00
26112;BME280;13829;48.990;8.346;2023-08-06T12:56:51;99835.09;;;17.55;99.93